Addyston, Ohio
Current Conditions -  °F | °C
As of 8:52 PM on Saturday 25 Oct 2014 (Local Time) from KCVG Reporting Station
Few Clouds Few Clouds  
Wind Chill: 67°   Ceiling: Unl
Heat Index: 67°   Visibility: 10mi
Dew Point: 51°   Wind: 6mph
Humidity: 57%   Direction: 240°WSW
Pressure: 29.92"   Gusts: NA
Location:  39.14°N, 84.71°W
Report Text: KCVG 260052Z 24005KT 10SM FEW250 19/11 A2992 RMK AO2 SLP127 T01940106
Loading
Personal Weather Stations






























Interactive Weather Map
Tropical Storm Tracking
New forecast layout! Learn more

10-Day Weather Forecast

Advertisements
Track Severe Weather on mobile